Terminal Aerodrome Forecast
Issued by NWS

Current Version | Previous Version | Text Only | Print | Product List | Glossary On
Versions: 1 2 3 4 5 6 7 8 9 10 11 12
534
FTPA31 PHFO 131120
TAFHTO
TAF
PHTO 131120Z 1312/1412 23004KT P6SM VCSH SCT025 BKN045
     FM132100 12010KT P6SM SCT030 BKN050
     FM140600 23004KT P6SM SCT025 BKN045=

USA.gov is the U.S. government's official web portal to all federal, state and local government web resources and services.